sensor_id;sensor_type;location;lat;lon;timestamp;P1;durP1;ratioP1;P2;durP2;ratioP2
16862;SDS011;52193;48.216;-1.698;2022-11-30T00:00:06;35.40;;;26.07;;
16862;SDS011;52193;48.216;-1.698;2022-11-30T00:02:34;29.88;;;23.42;;
16862;SDS011;52193;48.216;-1.698;2022-11-30T00:05:01;36.67;;;19.85;;
16862;SDS011;52193;48.216;-1.698;2022-11-30T00:07:28;29.83;;;18.88;;
16862;SDS011;52193;48.216;-1.698;2022-11-30T00:09:56;22.67;;;17.47;;
16862;SDS011;52193;48.216;-1.698;2022-11-30T00:12:23;23.48;;;18.10;;
16862;SDS011;52193;48.216;-1.698;2022-11-30T00:14:50;32.72;;;19.00;;
16862;SDS011;52193;48.216;-1.698;2022-11-30T00:17:17;19.52;;;17.77;;
16862;SDS011;52193;48.216;-1.698;2022-11-30T00:19:44;23.52;;;18.13;;
16862;SDS011;52193;48.216;-1.698;2022-11-30T00:22:11;29.65;;;19.63;;
16862;SDS011;52193;48.216;-1.698;2022-11-30T00:24:38;28.05;;;19.88;;
16862;SDS011;52193;48.216;-1.698;2022-11-30T00:27:06;28.63;;;20.23;;
16862;SDS011;52193;48.216;-1.698;2022-11-30T00:29:33;40.67;;;21.00;;
16862;SDS011;52193;48.216;-1.698;2022-11-30T00:32:00;34.75;;;21.38;;
16862;SDS011;52193;48.216;-1.698;2022-11-30T00:34:27;41.30;;;21.58;;
16862;SDS011;52193;48.216;-1.698;2022-11-30T00:36:54;31.02;;;20.90;;
16862;SDS011;52193;48.216;-1.698;2022-11-30T00:39:21;34.42;;;21.15;;
16862;SDS011;52193;48.216;-1.698;2022-11-30T00:41:48;48.60;;;22.75;;
16862;SDS011;52193;48.216;-1.698;2022-11-30T00:44:16;36.67;;;22.48;;
16862;SDS011;52193;48.216;-1.698;2022-11-30T00:46:43;35.10;;;21.48;;
16862;SDS011;52193;48.216;-1.698;2022-11-30T00:49:10;24.70;;;21.38;;
16862;SDS011;52193;48.216;-1.698;2022-11-30T00:51:37;45.55;;;21.70;;
16862;SDS011;52193;48.216;-1.698;2022-11-30T00:54:04;43.00;;;21.92;;
16862;SDS011;52193;48.216;-1.698;2022-11-30T00:56:31;40.20;;;21.50;;
16862;SDS011;52193;48.216;-1.698;2022-11-30T00:58:57;29.60;;;20.60;;
16862;SDS011;52193;48.216;-1.698;2022-11-30T01:01:26;29.88;;;21.17;;
16862;SDS011;52193;48.216;-1.698;2022-11-30T01:03:53;41.63;;;21.27;;
16862;SDS011;52193;48.216;-1.698;2022-11-30T01:06:20;53.92;;;21.52;;
16862;SDS011;52193;48.216;-1.698;2022-11-30T01:08:47;36.33;;;21.30;;
16862;SDS011;52193;48.216;-1.698;2022-11-30T01:11:15;42.63;;;22.10;;
16862;SDS011;52193;48.216;-1.698;2022-11-30T01:13:42;23.63;;;21.15;;
16862;SDS011;52193;48.216;-1.698;2022-11-30T01:16:10;23.77;;;21.45;;
16862;SDS011;52193;48.216;-1.698;2022-11-30T01:18:41;36.53;;;22.17;;
16862;SDS011;52193;48.216;-1.698;2022-11-30T01:21:09;39.07;;;23.30;;
16862;SDS011;52193;48.216;-1.698;2022-11-30T01:23:37;35.75;;;23.23;;
16862;SDS011;52193;48.216;-1.698;2022-11-30T01:26:05;43.33;;;24.10;;
16862;SDS011;52193;48.216;-1.698;2022-11-30T01:28:32;32.80;;;23.42;;
16862;SDS011;52193;48.216;-1.698;2022-11-30T01:31:00;27.90;;;23.20;;
16862;SDS011;52193;48.216;-1.698;2022-11-30T01:33:28;29.93;;;24.47;;
16862;SDS011;52193;48.216;-1.698;2022-11-30T01:36:00;26.77;;;24.02;;
16862;SDS011;52193;48.216;-1.698;2022-11-30T01:38:32;25.30;;;22.88;;
16862;SDS011;52193;48.216;-1.698;2022-11-30T01:41:00;29.20;;;24.63;;
16862;SDS011;52193;48.216;-1.698;2022-11-30T01:43:38;26.55;;;24.05;;
16862;SDS011;52193;48.216;-1.698;2022-11-30T01:46:13;26.75;;;23.92;;
16862;SDS011;52193;48.216;-1.698;2022-11-30T01:48:51;28.48;;;24.33;;
16862;SDS011;52193;48.216;-1.698;2022-11-30T01:51:27;25.55;;;23.35;;
16862;SDS011;52193;48.216;-1.698;2022-11-30T01:53:57;24.75;;;22.25;;
16862;SDS011;52193;48.216;-1.698;2022-11-30T01:56:25;24.52;;;22.50;;
16862;SDS011;52193;48.216;-1.698;2022-11-30T01:58:52;24.48;;;22.45;;
16862;SDS011;52193;48.216;-1.698;2022-11-30T02:01:19;24.17;;;22.15;;
16862;SDS011;52193;48.216;-1.698;2022-11-30T02:03:48;23.88;;;21.88;;
16862;SDS011;52193;48.216;-1.698;2022-11-30T02:06:20;23.88;;;21.92;;
16862;SDS011;52193;48.216;-1.698;2022-11-30T02:08:49;23.92;;;21.77;;
16862;SDS011;52193;48.216;-1.698;2022-11-30T02:11:17;24.35;;;22.13;;
16862;SDS011;52193;48.216;-1.698;2022-11-30T02:13:47;22.63;;;20.70;;
16862;SDS011;52193;48.216;-1.698;2022-11-30T02:16:28;21.10;;;19.17;;
16862;SDS011;52193;48.216;-1.698;2022-11-30T02:19:02;18.20;;;16.83;;
16862;SDS011;52193;48.216;-1.698;2022-11-30T02:21:38;17.83;;;16.27;;
16862;SDS011;52193;48.216;-1.698;2022-11-30T02:24:22;15.88;;;14.60;;
16862;SDS011;52193;48.216;-1.698;2022-11-30T02:27:02;16.38;;;15.02;;
16862;SDS011;52193;48.216;-1.698;2022-11-30T02:29:47;16.02;;;14.73;;
16862;SDS011;52193;48.216;-1.698;2022-11-30T02:32:19;16.33;;;15.02;;
16862;SDS011;52193;48.216;-1.698;2022-11-30T02:34:52;16.52;;;15.02;;
16862;SDS011;52193;48.216;-1.698;2022-11-30T02:37:21;16.20;;;14.80;;
16862;SDS011;52193;48.216;-1.698;2022-11-30T02:39:50;16.33;;;15.02;;
16862;SDS011;52193;48.216;-1.698;2022-11-30T02:42:17;16.25;;;14.80;;
16862;SDS011;52193;48.216;-1.698;2022-11-30T02:44:45;15.75;;;14.45;;
16862;SDS011;52193;48.216;-1.698;2022-11-30T02:47:18;17.20;;;15.73;;
16862;SDS011;52193;48.216;-1.698;2022-11-30T02:49:49;17.27;;;15.77;;
16862;SDS011;52193;48.216;-1.698;2022-11-30T02:52:21;16.83;;;15.35;;
16862;SDS011;52193;48.216;-1.698;2022-11-30T02:54:51;16.92;;;15.32;;
16862;SDS011;52193;48.216;-1.698;2022-11-30T02:57:18;16.10;;;14.80;;
16862;SDS011;52193;48.216;-1.698;2022-11-30T02:59:45;16.35;;;15.05;;
16862;SDS011;52193;48.216;-1.698;2022-11-30T03:02:13;15.98;;;14.68;;
16862;SDS011;52193;48.216;-1.698;2022-11-30T03:04:40;15.60;;;14.30;;
16862;SDS011;52193;48.216;-1.698;2022-11-30T03:07:07;15.88;;;14.65;;
16862;SDS011;52193;48.216;-1.698;2022-11-30T03:09:34;15.87;;;14.57;;
16862;SDS011;52193;48.216;-1.698;2022-11-30T03:12:01;15.82;;;14.55;;
16862;SDS011;52193;48.216;-1.698;2022-11-30T03:14:28;16.50;;;15.20;;
16862;SDS011;52193;48.216;-1.698;2022-11-30T03:16:55;15.35;;;14.15;;
16862;SDS011;52193;48.216;-1.698;2022-11-30T03:19:23;15.68;;;14.30;;
16862;SDS011;52193;48.216;-1.698;2022-11-30T03:21:50;16.63;;;15.02;;
16862;SDS011;52193;48.216;-1.698;2022-11-30T03:24:17;16.02;;;14.73;;
16862;SDS011;52193;48.216;-1.698;2022-11-30T03:26:44;15.70;;;14.50;;
16862;SDS011;52193;48.216;-1.698;2022-11-30T03:29:11;15.05;;;13.93;;
16862;SDS011;52193;48.216;-1.698;2022-11-30T03:31:38;15.67;;;14.47;;
16862;SDS011;52193;48.216;-1.698;2022-11-30T03:34:05;14.45;;;13.35;;
16862;SDS011;52193;48.216;-1.698;2022-11-30T03:36:33;14.57;;;13.38;;
16862;SDS011;52193;48.216;-1.698;2022-11-30T03:39:00;14.23;;;13.15;;
16862;SDS011;52193;48.216;-1.698;2022-11-30T03:41:28;13.77;;;12.68;;
16862;SDS011;52193;48.216;-1.698;2022-11-30T03:43:55;13.77;;;12.57;;
16862;SDS011;52193;48.216;-1.698;2022-11-30T03:46:22;13.80;;;12.80;;
16862;SDS011;52193;48.216;-1.698;2022-11-30T03:48:49;13.88;;;12.80;;
16862;SDS011;52193;48.216;-1.698;2022-11-30T03:51:16;14.10;;;13.00;;
16862;SDS011;52193;48.216;-1.698;2022-11-30T03:53:45;13.23;;;12.07;;
16862;SDS011;52193;48.216;-1.698;2022-11-30T03:56:12;12.95;;;11.88;;
16862;SDS011;52193;48.216;-1.698;2022-11-30T03:58:39;13.55;;;12.55;;
16862;SDS011;52193;48.216;-1.698;2022-11-30T04:01:07;14.23;;;13.13;;
16862;SDS011;52193;48.216;-1.698;2022-11-30T04:03:35;13.98;;;12.88;;
16862;SDS011;52193;48.216;-1.698;2022-11-30T04:06:03;14.60;;;13.40;;
16862;SDS011;52193;48.216;-1.698;2022-11-30T04:08:31;14.00;;;12.90;;
16862;SDS011;52193;48.216;-1.698;2022-11-30T04:11:00;14.85;;;13.65;;
16862;SDS011;52193;48.216;-1.698;2022-11-30T04:13:30;14.68;;;13.52;;
16862;SDS011;52193;48.216;-1.698;2022-11-30T04:15:57;14.95;;;13.68;;
16862;SDS011;52193;48.216;-1.698;2022-11-30T04:18:25;14.40;;;13.20;;
16862;SDS011;52193;48.216;-1.698;2022-11-30T04:20:54;14.60;;;13.50;;
16862;SDS011;52193;48.216;-1.698;2022-11-30T04:23:22;14.32;;;13.15;;
16862;SDS011;52193;48.216;-1.698;2022-11-30T04:25:50;15.35;;;14.05;;
16862;SDS011;52193;48.216;-1.698;2022-11-30T04:28:19;14.10;;;12.90;;
16862;SDS011;52193;48.216;-1.698;2022-11-30T04:30:46;14.00;;;13.00;;
16862;SDS011;52193;48.216;-1.698;2022-11-30T04:33:13;13.70;;;12.70;;
16862;SDS011;52193;48.216;-1.698;2022-11-30T04:35:42;13.93;;;12.88;;
16862;SDS011;52193;48.216;-1.698;2022-11-30T04:38:11;14.15;;;13.02;;
16862;SDS011;52193;48.216;-1.698;2022-11-30T04:40:38;13.77;;;12.77;;
16862;SDS011;52193;48.216;-1.698;2022-11-30T04:43:05;13.50;;;12.50;;
16862;SDS011;52193;48.216;-1.698;2022-11-30T04:45:34;13.63;;;12.45;;
16862;SDS011;52193;48.216;-1.698;2022-11-30T04:48:02;14.43;;;13.23;;
16862;SDS011;52193;48.216;-1.698;2022-11-30T04:50:29;14.55;;;13.32;;
16862;SDS011;52193;48.216;-1.698;2022-11-30T04:52:56;13.70;;;12.63;;
16862;SDS011;52193;48.216;-1.698;2022-11-30T04:55:23;13.90;;;12.80;;
16862;SDS011;52193;48.216;-1.698;2022-11-30T04:57:50;14.15;;;12.95;;
16862;SDS011;52193;48.216;-1.698;2022-11-30T05:00:18;13.63;;;12.52;;
16862;SDS011;52193;48.216;-1.698;2022-11-30T05:02:47;14.00;;;12.90;;
16862;SDS011;52193;48.216;-1.698;2022-11-30T05:05:15;13.38;;;12.20;;
16862;SDS011;52193;48.216;-1.698;2022-11-30T05:07:42;13.18;;;12.18;;
16862;SDS011;52193;48.216;-1.698;2022-11-30T05:10:09;13.30;;;12.30;;
16862;SDS011;52193;48.216;-1.698;2022-11-30T05:12:37;13.70;;;12.60;;
16862;SDS011;52193;48.216;-1.698;2022-11-30T05:15:04;13.52;;;12.43;;
16862;SDS011;52193;48.216;-1.698;2022-11-30T05:17:32;12.82;;;11.82;;
16862;SDS011;52193;48.216;-1.698;2022-11-30T05:20:00;13.27;;;12.20;;
16862;SDS011;52193;48.216;-1.698;2022-11-30T05:22:27;13.05;;;12.05;;
16862;SDS011;52193;48.216;-1.698;2022-11-30T05:24:54;12.95;;;11.95;;
16862;SDS011;52193;48.216;-1.698;2022-11-30T05:27:21;13.23;;;12.13;;
16862;SDS011;52193;48.216;-1.698;2022-11-30T05:29:48;13.05;;;12.05;;
16862;SDS011;52193;48.216;-1.698;2022-11-30T05:32:14;13.10;;;12.00;;
16862;SDS011;52193;48.216;-1.698;2022-11-30T05:34:41;13.07;;;12.07;;
16862;SDS011;52193;48.216;-1.698;2022-11-30T05:37:10;14.27;;;12.90;;
16862;SDS011;52193;48.216;-1.698;2022-11-30T05:39:37;13.50;;;12.50;;
16862;SDS011;52193;48.216;-1.698;2022-11-30T05:42:04;14.25;;;12.95;;
16862;SDS011;52193;48.216;-1.698;2022-11-30T05:44:30;14.05;;;12.98;;
16862;SDS011;52193;48.216;-1.698;2022-11-30T05:46:57;14.50;;;13.30;;
16862;SDS011;52193;48.216;-1.698;2022-11-30T05:49:24;14.02;;;12.93;;
16862;SDS011;52193;48.216;-1.698;2022-11-30T05:51:51;13.80;;;12.50;;
16862;SDS011;52193;48.216;-1.698;2022-11-30T05:54:19;14.32;;;13.18;;
16862;SDS011;52193;48.216;-1.698;2022-11-30T05:56:46;14.63;;;13.43;;
16862;SDS011;52193;48.216;-1.698;2022-11-30T05:59:13;15.50;;;14.20;;
16862;SDS011;52193;48.216;-1.698;2022-11-30T06:01:40;15.15;;;13.85;;
16862;SDS011;52193;48.216;-1.698;2022-11-30T06:04:07;15.05;;;13.80;;
16862;SDS011;52193;48.216;-1.698;2022-11-30T06:06:34;18.00;;;16.58;;
16862;SDS011;52193;48.216;-1.698;2022-11-30T06:09:01;19.90;;;18.17;;
16862;SDS011;52193;48.216;-1.698;2022-11-30T06:11:29;17.85;;;16.35;;
16862;SDS011;52193;48.216;-1.698;2022-11-30T06:13:56;19.55;;;17.80;;
16862;SDS011;52193;48.216;-1.698;2022-11-30T06:16:23;18.65;;;17.08;;
16862;SDS011;52193;48.216;-1.698;2022-11-30T06:18:50;16.20;;;14.90;;
16862;SDS011;52193;48.216;-1.698;2022-11-30T06:21:17;15.63;;;14.30;;
16862;SDS011;52193;48.216;-1.698;2022-11-30T06:23:44;15.40;;;14.00;;
16862;SDS011;52193;48.216;-1.698;2022-11-30T06:26:11;15.77;;;14.48;;
16862;SDS011;52193;48.216;-1.698;2022-11-30T06:28:39;18.33;;;16.60;;
16862;SDS011;52193;48.216;-1.698;2022-11-30T06:31:06;18.73;;;17.00;;
16862;SDS011;52193;48.216;-1.698;2022-11-30T06:33:33;17.63;;;16.02;;
16862;SDS011;52193;48.216;-1.698;2022-11-30T06:36:00;17.52;;;15.82;;
16862;SDS011;52193;48.216;-1.698;2022-11-30T06:38:27;16.60;;;15.18;;
16862;SDS011;52193;48.216;-1.698;2022-11-30T06:41:00;17.48;;;15.70;;
16862;SDS011;52193;48.216;-1.698;2022-11-30T06:43:31;16.67;;;15.15;;
16862;SDS011;52193;48.216;-1.698;2022-11-30T06:46:00;15.75;;;14.55;;
16862;SDS011;52193;48.216;-1.698;2022-11-30T06:48:27;18.45;;;16.85;;
16862;SDS011;52193;48.216;-1.698;2022-11-30T06:50:54;17.52;;;16.02;;
16862;SDS011;52193;48.216;-1.698;2022-11-30T06:53:22;15.80;;;14.60;;
16862;SDS011;52193;48.216;-1.698;2022-11-30T06:55:49;16.40;;;14.90;;
16862;SDS011;52193;48.216;-1.698;2022-11-30T06:58:16;17.43;;;15.93;;
16862;SDS011;52193;48.216;-1.698;2022-11-30T07:00:43;16.83;;;15.35;;
16862;SDS011;52193;48.216;-1.698;2022-11-30T07:03:11;16.27;;;14.85;;
16862;SDS011;52193;48.216;-1.698;2022-11-30T07:05:39;18.15;;;16.60;;
16862;SDS011;52193;48.216;-1.698;2022-11-30T07:08:09;21.75;;;19.83;;
16862;SDS011;52193;48.216;-1.698;2022-11-30T07:10:37;20.33;;;18.52;;
16862;SDS011;52193;48.216;-1.698;2022-11-30T07:13:08;18.98;;;17.38;;
16862;SDS011;52193;48.216;-1.698;2022-11-30T07:15:36;19.25;;;17.58;;
16862;SDS011;52193;48.216;-1.698;2022-11-30T07:18:03;17.65;;;16.23;;
16862;SDS011;52193;48.216;-1.698;2022-11-30T07:20:31;16.95;;;15.55;;
16862;SDS011;52193;48.216;-1.698;2022-11-30T07:22:59;15.45;;;14.25;;
16862;SDS011;52193;48.216;-1.698;2022-11-30T07:25:47;15.13;;;14.02;;
16862;SDS011;52193;48.216;-1.698;2022-11-30T07:28:33;15.18;;;13.98;;
16862;SDS011;52193;48.216;-1.698;2022-11-30T07:31:01;15.32;;;14.05;;
16862;SDS011;52193;48.216;-1.698;2022-11-30T07:33:38;15.85;;;14.63;;
16862;SDS011;52193;48.216;-1.698;2022-11-30T07:36:06;16.10;;;14.80;;
16862;SDS011;52193;48.216;-1.698;2022-11-30T07:38:34;15.23;;;14.02;;
16862;SDS011;52193;48.216;-1.698;2022-11-30T07:41:01;14.25;;;13.18;;
16862;SDS011;52193;48.216;-1.698;2022-11-30T07:43:28;14.70;;;13.50;;
16862;SDS011;52193;48.216;-1.698;2022-11-30T07:45:55;14.35;;;13.25;;
16862;SDS011;52193;48.216;-1.698;2022-11-30T07:48:22;14.00;;;12.80;;
16862;SDS011;52193;48.216;-1.698;2022-11-30T07:50:49;12.40;;;11.50;;
16862;SDS011;52193;48.216;-1.698;2022-11-30T07:53:17;13.50;;;12.50;;
16862;SDS011;52193;48.216;-1.698;2022-11-30T07:55:44;12.65;;;11.65;;
16862;SDS011;52193;48.216;-1.698;2022-11-30T07:58:11;13.05;;;11.95;;
16862;SDS011;52193;48.216;-1.698;2022-11-30T08:00:38;12.90;;;11.90;;
16862;SDS011;52193;48.216;-1.698;2022-11-30T08:03:05;12.23;;;11.27;;
16862;SDS011;52193;48.216;-1.698;2022-11-30T08:05:32;12.48;;;11.57;;
16862;SDS011;52193;48.216;-1.698;2022-11-30T08:07:59;12.23;;;11.32;;
16862;SDS011;52193;48.216;-1.698;2022-11-30T08:10:27;11.68;;;10.73;;
16862;SDS011;52193;48.216;-1.698;2022-11-30T08:12:54;11.73;;;10.93;;
16862;SDS011;52193;48.216;-1.698;2022-11-30T08:15:21;12.07;;;11.07;;
16862;SDS011;52193;48.216;-1.698;2022-11-30T08:17:48;11.80;;;10.90;;
16862;SDS011;52193;48.216;-1.698;2022-11-30T08:20:19;11.20;;;10.30;;
16862;SDS011;52193;48.216;-1.698;2022-11-30T08:22:47;11.18;;;10.27;;
16862;SDS011;52193;48.216;-1.698;2022-11-30T08:25:16;11.05;;;10.25;;
16862;SDS011;52193;48.216;-1.698;2022-11-30T08:27:44;10.80;;;10.00;;
16862;SDS011;52193;48.216;-1.698;2022-11-30T08:30:11;10.98;;;10.18;;
16862;SDS011;52193;48.216;-1.698;2022-11-30T08:32:38;11.43;;;10.55;;
16862;SDS011;52193;48.216;-1.698;2022-11-30T08:35:05;11.18;;;10.23;;
16862;SDS011;52193;48.216;-1.698;2022-11-30T08:37:34;10.75;;;9.88;;
16862;SDS011;52193;48.216;-1.698;2022-11-30T08:40:01;11.30;;;10.40;;
16862;SDS011;52193;48.216;-1.698;2022-11-30T08:42:30;11.10;;;10.15;;
16862;SDS011;52193;48.216;-1.698;2022-11-30T08:44:58;11.52;;;10.63;;
16862;SDS011;52193;48.216;-1.698;2022-11-30T08:47:27;11.87;;;10.80;;
16862;SDS011;52193;48.216;-1.698;2022-11-30T08:49:55;11.70;;;10.70;;
16862;SDS011;52193;48.216;-1.698;2022-11-30T08:52:22;11.48;;;10.57;;
16862;SDS011;52193;48.216;-1.698;2022-11-30T08:54:49;10.75;;;9.85;;
16862;SDS011;52193;48.216;-1.698;2022-11-30T08:57:16;9.50;;;8.80;;
16862;SDS011;52193;48.216;-1.698;2022-11-30T08:59:44;9.20;;;8.60;;
16862;SDS011;52193;48.216;-1.698;2022-11-30T09:02:14;9.50;;;8.90;;
16862;SDS011;52193;48.216;-1.698;2022-11-30T09:04:42;10.00;;;9.30;;
16862;SDS011;52193;48.216;-1.698;2022-11-30T09:07:09;10.30;;;9.60;;
16862;SDS011;52193;48.216;-1.698;2022-11-30T09:09:36;10.20;;;9.40;;
16862;SDS011;52193;48.216;-1.698;2022-11-30T09:12:03;10.18;;;9.27;;
16862;SDS011;52193;48.216;-1.698;2022-11-30T09:14:31;10.00;;;9.25;;
16862;SDS011;52193;48.216;-1.698;2022-11-30T09:16:58;9.30;;;8.60;;
16862;SDS011;52193;48.216;-1.698;2022-11-30T09:19:26;10.03;;;9.33;;
16862;SDS011;52193;48.216;-1.698;2022-11-30T09:21:53;9.82;;;9.02;;
16862;SDS011;52193;48.216;-1.698;2022-11-30T09:24:20;8.93;;;8.32;;
16862;SDS011;52193;48.216;-1.698;2022-11-30T09:26:47;9.05;;;8.35;;
16862;SDS011;52193;48.216;-1.698;2022-11-30T09:29:14;8.95;;;8.35;;
16862;SDS011;52193;48.216;-1.698;2022-11-30T09:31:41;9.20;;;8.50;;
16862;SDS011;52193;48.216;-1.698;2022-11-30T09:34:09;9.63;;;8.82;;
16862;SDS011;52193;48.216;-1.698;2022-11-30T09:36:38;9.10;;;8.40;;
16862;SDS011;52193;48.216;-1.698;2022-11-30T09:39:05;8.70;;;8.10;;
16862;SDS011;52193;48.216;-1.698;2022-11-30T09:41:38;8.90;;;8.25;;
16862;SDS011;52193;48.216;-1.698;2022-11-30T09:44:28;8.15;;;7.55;;
16862;SDS011;52193;48.216;-1.698;2022-11-30T09:47:06;8.30;;;7.60;;
16862;SDS011;52193;48.216;-1.698;2022-11-30T09:49:43;7.78;;;7.18;;
16862;SDS011;52193;48.216;-1.698;2022-11-30T09:52:13;8.55;;;7.95;;
16862;SDS011;52193;48.216;-1.698;2022-11-30T09:54:44;8.23;;;7.72;;
16862;SDS011;52193;48.216;-1.698;2022-11-30T09:57:17;7.55;;;6.95;;
16862;SDS011;52193;48.216;-1.698;2022-11-30T09:59:51;7.80;;;7.30;;
16862;SDS011;52193;48.216;-1.698;2022-11-30T10:02:20;8.68;;;7.97;;
16862;SDS011;52193;48.216;-1.698;2022-11-30T10:04:53;8.50;;;8.00;;
16862;SDS011;52193;48.216;-1.698;2022-11-30T10:07:24;11.73;;;10.93;;
16862;SDS011;52193;48.216;-1.698;2022-11-30T10:10:06;8.80;;;8.10;;
16862;SDS011;52193;48.216;-1.698;2022-11-30T10:12:45;8.13;;;7.53;;
16862;SDS011;52193;48.216;-1.698;2022-11-30T10:15:25;7.57;;;7.07;;
16862;SDS011;52193;48.216;-1.698;2022-11-30T10:18:00;8.25;;;7.55;;
16862;SDS011;52193;48.216;-1.698;2022-11-30T10:20:40;9.60;;;8.90;;
16862;SDS011;52193;48.216;-1.698;2022-11-30T10:23:28;13.50;;;12.48;;
16862;SDS011;52193;48.216;-1.698;2022-11-30T10:26:07;10.55;;;9.73;;
16862;SDS011;52193;48.216;-1.698;2022-11-30T10:28:40;8.75;;;8.05;;
16862;SDS011;52193;48.216;-1.698;2022-11-30T10:31:14;8.70;;;7.90;;
16862;SDS011;52193;48.216;-1.698;2022-11-30T10:33:44;7.10;;;6.40;;
16862;SDS011;52193;48.216;-1.698;2022-11-30T10:36:13;7.55;;;6.95;;
16862;SDS011;52193;48.216;-1.698;2022-11-30T10:38:46;6.38;;;5.97;;
16862;SDS011;52193;48.216;-1.698;2022-11-30T10:41:17;6.47;;;5.97;;
16862;SDS011;52193;48.216;-1.698;2022-11-30T10:43:50;6.23;;;5.73;;
16862;SDS011;52193;48.216;-1.698;2022-11-30T10:46:24;6.20;;;5.70;;
16862;SDS011;52193;48.216;-1.698;2022-11-30T10:48:55;6.35;;;5.75;;
16862;SDS011;52193;48.216;-1.698;2022-11-30T10:51:26;6.10;;;5.60;;
16862;SDS011;52193;48.216;-1.698;2022-11-30T10:53:55;6.15;;;5.68;;
16862;SDS011;52193;48.216;-1.698;2022-11-30T10:56:24;6.00;;;5.60;;
16862;SDS011;52193;48.216;-1.698;2022-11-30T10:58:52;6.10;;;5.70;;
16862;SDS011;52193;48.216;-1.698;2022-11-30T11:01:30;6.30;;;5.90;;
16862;SDS011;52193;48.216;-1.698;2022-11-30T11:04:10;5.70;;;5.30;;
16862;SDS011;52193;48.216;-1.698;2022-11-30T11:06:42;5.83;;;5.17;;
16862;SDS011;52193;48.216;-1.698;2022-11-30T11:12:13;4.20;;;3.90;;
16862;SDS011;52193;48.216;-1.698;2022-11-30T11:14:41;4.53;;;4.13;;
16862;SDS011;52193;48.216;-1.698;2022-11-30T11:17:19;4.20;;;3.80;;
16862;SDS011;52193;48.216;-1.698;2022-11-30T11:19:48;4.30;;;4.00;;
16862;SDS011;52193;48.216;-1.698;2022-11-30T11:22:16;4.50;;;4.10;;
16862;SDS011;52193;48.216;-1.698;2022-11-30T11:24:47;4.80;;;4.40;;
16862;SDS011;52193;48.216;-1.698;2022-11-30T11:27:19;4.30;;;4.00;;
16862;SDS011;52193;48.216;-1.698;2022-11-30T11:30:02;4.88;;;4.40;;
16862;SDS011;52193;48.216;-1.698;2022-11-30T11:32:32;4.95;;;4.55;;
16862;SDS011;52193;48.216;-1.698;2022-11-30T11:35:00;5.05;;;4.63;;
16862;SDS011;52193;48.216;-1.698;2022-11-30T11:37:27;4.95;;;4.65;;
16862;SDS011;52193;48.216;-1.698;2022-11-30T11:39:58;4.70;;;4.40;;
16862;SDS011;52193;48.216;-1.698;2022-11-30T11:42:28;5.10;;;4.70;;
16862;SDS011;52193;48.216;-1.698;2022-11-30T11:44:57;5.20;;;4.78;;
16862;SDS011;52193;48.216;-1.698;2022-11-30T11:47:26;5.20;;;4.70;;
16862;SDS011;52193;48.216;-1.698;2022-11-30T11:50:04;5.32;;;4.90;;
16862;SDS011;52193;48.216;-1.698;2022-11-30T11:52:45;4.78;;;4.47;;
16862;SDS011;52193;48.216;-1.698;2022-11-30T11:55:14;4.90;;;4.50;;
16862;SDS011;52193;48.216;-1.698;2022-11-30T11:57:45;4.63;;;4.32;;
16862;SDS011;52193;48.216;-1.698;2022-11-30T12:00:18;5.37;;;4.97;;
16862;SDS011;52193;48.216;-1.698;2022-11-30T12:02:48;5.30;;;4.90;;
16862;SDS011;52193;48.216;-1.698;2022-11-30T12:05:22;5.53;;;5.13;;
16862;SDS011;52193;48.216;-1.698;2022-11-30T12:07:57;5.93;;;5.50;;
16862;SDS011;52193;48.216;-1.698;2022-11-30T12:10:33;6.25;;;5.70;;
16862;SDS011;52193;48.216;-1.698;2022-11-30T12:13:08;5.50;;;5.10;;
16862;SDS011;52193;48.216;-1.698;2022-11-30T12:15:43;5.97;;;5.53;;
16862;SDS011;52193;48.216;-1.698;2022-11-30T12:18:22;6.67;;;6.17;;
16862;SDS011;52193;48.216;-1.698;2022-11-30T12:20:55;6.80;;;6.30;;
16862;SDS011;52193;48.216;-1.698;2022-11-30T12:23:30;6.10;;;5.60;;
16862;SDS011;52193;48.216;-1.698;2022-11-30T12:26:10;5.90;;;5.40;;
16862;SDS011;52193;48.216;-1.698;2022-11-30T12:28:49;5.78;;;5.35;;
16862;SDS011;52193;48.216;-1.698;2022-11-30T12:31:30;5.85;;;5.38;;
16862;SDS011;52193;48.216;-1.698;2022-11-30T12:34:06;6.30;;;5.70;;
16862;SDS011;52193;48.216;-1.698;2022-11-30T12:36:42;5.97;;;5.53;;
16862;SDS011;52193;48.216;-1.698;2022-11-30T12:39:19;6.57;;;5.97;;
16862;SDS011;52193;48.216;-1.698;2022-11-30T12:41:58;6.22;;;5.82;;
16862;SDS011;52193;48.216;-1.698;2022-11-30T12:44:33;6.30;;;5.80;;
16862;SDS011;52193;48.216;-1.698;2022-11-30T12:47:12;6.53;;;6.00;;
16862;SDS011;52193;48.216;-1.698;2022-11-30T12:49:54;6.37;;;5.80;;
16862;SDS011;52193;48.216;-1.698;2022-11-30T12:52:34;6.40;;;5.80;;
16862;SDS011;52193;48.216;-1.698;2022-11-30T12:55:12;6.50;;;5.90;;
16862;SDS011;52193;48.216;-1.698;2022-11-30T12:57:53;6.55;;;6.05;;
16862;SDS011;52193;48.216;-1.698;2022-11-30T13:00:24;6.10;;;5.60;;
16862;SDS011;52193;48.216;-1.698;2022-11-30T13:05:51;7.25;;;6.60;;
16862;SDS011;52193;48.216;-1.698;2022-11-30T13:08:23;6.38;;;5.78;;
16862;SDS011;52193;48.216;-1.698;2022-11-30T13:10:53;6.88;;;6.00;;
16862;SDS011;52193;48.216;-1.698;2022-11-30T13:13:25;6.55;;;6.05;;
16862;SDS011;52193;48.216;-1.698;2022-11-30T13:15:55;6.28;;;5.78;;
16862;SDS011;52193;48.216;-1.698;2022-11-30T13:18:24;6.47;;;5.88;;
16862;SDS011;52193;48.216;-1.698;2022-11-30T13:20:53;6.57;;;6.07;;
16862;SDS011;52193;48.216;-1.698;2022-11-30T13:23:26;6.80;;;6.20;;
16862;SDS011;52193;48.216;-1.698;2022-11-30T13:26:01;6.70;;;6.10;;
16862;SDS011;52193;48.216;-1.698;2022-11-30T13:28:44;6.90;;;6.30;;
16862;SDS011;52193;48.216;-1.698;2022-11-30T13:31:23;6.75;;;6.15;;
16862;SDS011;52193;48.216;-1.698;2022-11-30T13:33:56;7.60;;;6.90;;
16862;SDS011;52193;48.216;-1.698;2022-11-30T13:36:34;7.82;;;6.97;;
16862;SDS011;52193;48.216;-1.698;2022-11-30T13:39:15;6.60;;;6.07;;
16862;SDS011;52193;48.216;-1.698;2022-11-30T13:41:47;6.53;;;6.03;;
16862;SDS011;52193;48.216;-1.698;2022-11-30T13:44:23;7.05;;;6.45;;
16862;SDS011;52193;48.216;-1.698;2022-11-30T13:46:56;7.50;;;6.80;;
16862;SDS011;52193;48.216;-1.698;2022-11-30T13:49:27;7.38;;;6.72;;
16862;SDS011;52193;48.216;-1.698;2022-11-30T13:51:55;7.50;;;6.80;;
16862;SDS011;52193;48.216;-1.698;2022-11-30T13:54:41;6.97;;;6.38;;
16862;SDS011;52193;48.216;-1.698;2022-11-30T14:03:21;5.57;;;5.07;;
16862;SDS011;52193;48.216;-1.698;2022-11-30T14:05:50;5.32;;;4.93;;
16862;SDS011;52193;48.216;-1.698;2022-11-30T14:08:29;5.90;;;5.40;;
16862;SDS011;52193;48.216;-1.698;2022-11-30T14:17:10;6.40;;;5.90;;
16862;SDS011;52193;48.216;-1.698;2022-11-30T14:19:42;6.50;;;5.90;;
16862;SDS011;52193;48.216;-1.698;2022-11-30T14:22:10;6.03;;;5.53;;
16862;SDS011;52193;48.216;-1.698;2022-11-30T14:24:39;6.03;;;5.43;;
16862;SDS011;52193;48.216;-1.698;2022-11-30T14:27:08;5.90;;;5.40;;
16862;SDS011;52193;48.216;-1.698;2022-11-30T14:29:41;5.72;;;5.22;;
16862;SDS011;52193;48.216;-1.698;2022-11-30T14:32:11;5.40;;;5.00;;
16862;SDS011;52193;48.216;-1.698;2022-11-30T14:34:46;4.80;;;4.50;;
16862;SDS011;52193;48.216;-1.698;2022-11-30T14:37:17;5.03;;;4.63;;
16862;SDS011;52193;48.216;-1.698;2022-11-30T14:39:47;4.85;;;4.55;;
16862;SDS011;52193;48.216;-1.698;2022-11-30T14:42:18;4.70;;;4.40;;
16862;SDS011;52193;48.216;-1.698;2022-11-30T14:44:47;4.60;;;4.30;;
16862;SDS011;52193;48.216;-1.698;2022-11-30T14:47:19;5.30;;;4.85;;
16862;SDS011;52193;48.216;-1.698;2022-11-30T14:49:49;5.15;;;4.75;;
16862;SDS011;52193;48.216;-1.698;2022-11-30T14:52:20;4.95;;;4.55;;